Terminal Aerodrome Forecast
Issued by NWS

Home | Current Version | Previous Version | Text Only | Print | Product List | Glossary On
Versions: 1 2 3 4 5 6 7 8 9 10 11 12 13 14 15 16 17 18 19 20
000
FTUS43 KDDC 222000 AAA
TAFGCK
TAF AMD
KGCK 222045Z 2221/2318 18020G30KT P6SM SCT200
     FM230200 15015G25KT P6SM SCT200
     FM231500 18020G30KT P6SM BKN200=

USA.gov is the U.S. government's official web portal to all federal, state and local government web resources and services.